Time;durP1;ratioP1;P1;durP2;ratioP2;P2;SDS_P1;SDS_P2;PMS_P1;PMS_P2;Temp;Humidity;BMP_temperature;BMP_pressure;BME280_temperature;BME280_humidity;BME280_pressure;Samples;Min_cycle;Max_cycle;Signal;HPM_P1;HPM_P2
2022/05/18 00:01:08;;;;;;;15.73;12.10;;;16.20;75.40;;;;;;4851217;29;20301;-65
2022/05/18 00:03:38;;;;;;;14.53;12.43;;;16.20;75.60;;;;;;4822022;29;20694;-65
2022/05/18 00:06:05;;;;;;;13.20;12.00;;;16.20;75.60;;;;;;4820934;29;20296;-65
2022/05/18 00:08:37;;;;;;;14.67;12.57;;;16.10;75.60;;;;;;4819695;29;20339;-65
2022/05/18 00:11:12;;;;;;;14.07;12.33;;;16.10;75.70;;;;;;4844646;29;20408;-65
2022/05/18 00:13:39;;;;;;;13.52;11.90;;;16.00;75.80;;;;;;4847592;29;20294;-65
2022/05/18 00:16:05;;;;;;;14.87;12.20;;;16.00;75.70;;;;;;4823109;29;20107;-65
2022/05/18 00:18:31;;;;;;;17.17;14.27;;;16.00;76.10;;;;;;4841176;29;20292;-65
2022/05/18 00:20:57;;;;;;;14.80;13.50;;;15.90;76.20;;;;;;4850899;29;20053;-65
2022/05/18 00:23:23;;;;;;;14.23;12.90;;;15.90;76.70;;;;;;4849379;29;20061;-65
2022/05/18 00:25:49;;;;;;;13.70;12.30;;;15.90;76.50;;;;;;4807127;29;20680;-65
2022/05/18 00:28:14;;;;;;;15.30;13.80;;;15.90;76.80;;;;;;4818328;29;20107;-65
2022/05/18 00:30:40;;;;;;;12.10;11.00;;;15.80;76.60;;;;;;4820389;29;20496;-65
2022/05/18 00:33:08;;;;;;;13.27;11.97;;;15.80;76.50;;;;;;4824235;29;20125;-65
2022/05/18 00:35:35;;;;;;;13.70;12.40;;;15.70;76.40;;;;;;4822070;29;20042;-65
2022/05/18 00:38:03;;;;;;;14.93;11.83;;;15.70;76.50;;;;;;4818184;29;20308;-65
2022/05/18 00:40:30;;;;;;;14.77;13.47;;;15.60;76.60;;;;;;4802753;29;20326;-65
2022/05/18 00:42:56;;;;;;;14.57;13.17;;;15.60;77.10;;;;;;4847001;29;20360;-65
2022/05/18 00:45:21;;;;;;;15.23;12.67;;;15.50;77.40;;;;;;4823651;29;20294;-65
2022/05/18 00:47:47;;;;;;;14.10;12.70;;;15.50;77.50;;;;;;4827580;29;20100;-65
2022/05/18 00:50:34;;;;;;;13.43;12.13;;;15.40;77.80;;;;;;4805109;29;20050;-65
2022/05/18 00:53:23;;;;;;;14.13;12.73;;;15.40;77.80;;;;;;4828804;29;20046;-65
2022/05/18 00:55:54;;;;;;;14.80;13.30;;;15.40;77.60;;;;;;4846624;29;20569;-65
2022/05/18 00:58:35;;;;;;;15.13;12.80;;;15.30;77.80;;;;;;4817719;29;20784;-65
2022/05/18 01:01:01;;;;;;;16.03;13.53;;;15.30;77.60;;;;;;4850868;29;20307;-65
2022/05/18 01:03:40;;;;;;;13.50;12.10;;;15.20;77.90;;;;;;4810159;29;20311;-65
2022/05/18 01:06:32;;;;;;;13.80;12.47;;;15.20;77.60;;;;;;4828390;29;20298;-65
2022/05/18 01:09:05;;;;;;;13.07;11.77;;;15.20;77.60;;;;;;4841617;29;20316;-65
2022/05/18 01:11:33;;;;;;;13.03;11.77;;;15.20;77.60;;;;;;4822973;29;20356;-65
2022/05/18 01:13:59;;;;;;;14.60;12.83;;;15.10;77.40;;;;;;4817426;29;20870;-65
2022/05/18 01:16:26;;;;;;;14.13;12.73;;;15.10;77.40;;;;;;4816418;29;20303;-65
2022/05/18 01:18:55;;;;;;;14.07;12.73;;;15.00;77.50;;;;;;4824794;29;20793;-65
2022/05/18 01:21:23;;;;;;;13.90;12.53;;;15.00;77.50;;;;;;4823722;29;20302;-65
2022/05/18 01:24:16;;;;;;;15.30;13.27;;;15.00;77.40;;;;;;4804028;29;20371;-65
2022/05/18 01:26:47;;;;;;;14.23;12.83;;;14.90;77.50;;;;;;4807727;29;20299;-65
2022/05/18 01:29:16;;;;;;;14.30;12.90;;;14.90;78.00;;;;;;4823218;29;20323;-65
2022/05/18 01:31:48;;;;;;;15.10;13.57;;;14.80;78.00;;;;;;4827556;29;20287;-65
2022/05/18 01:34:15;;;;;;;14.23;12.73;;;14.80;78.10;;;;;;4820412;29;20415;-65
2022/05/18 01:36:41;;;;;;;15.00;13.50;;;14.80;78.10;;;;;;4848576;29;20851;-65
2022/05/18 01:39:12;;;;;;;15.13;13.67;;;14.70;78.00;;;;;;4810599;29;20339;-65
2022/05/18 01:41:44;;;;;;;15.67;14.17;;;14.70;78.10;;;;;;4828662;29;20065;-65
2022/05/18 01:44:10;;;;;;;15.40;13.90;;;14.70;78.30;;;;;;4838069;29;20405;-65
2022/05/18 01:46:36;;;;;;;17.20;14.10;;;14.70;78.60;;;;;;4848598;29;20381;-65
2022/05/18 01:49:02;;;;;;;14.47;12.83;;;14.70;78.80;;;;;;4798964;29;20058;-65
2022/05/18 01:51:55;;;;;;;15.37;13.97;;;14.70;78.90;;;;;;4818195;29;20045;-65
2022/05/18 01:54:21;;;;;;;13.83;12.37;;;14.80;78.50;;;;;;4805769;29;20077;-65
2022/05/18 01:56:46;;;;;;;17.53;12.43;;;14.70;78.60;;;;;;4822602;29;20785;-65
2022/05/18 01:59:12;;;;;;;14.27;12.87;;;14.70;78.50;;;;;;4819428;29;20326;-65
2022/05/18 02:01:38;;;;;;;15.40;12.97;;;14.70;78.70;;;;;;4817841;29;20092;-65
2022/05/18 02:04:05;;;;;;;14.20;12.77;;;14.70;78.60;;;;;;4828561;29;20051;-65
2022/05/18 02:06:33;;;;;;;15.50;13.47;;;14.70;78.60;;;;;;4823917;29;20052;-65
2022/05/18 02:08:59;;;;;;;14.67;12.57;;;14.70;78.80;;;;;;4800249;29;20644;-65
2022/05/18 02:11:25;;;;;;;16.67;13.80;;;14.70;78.90;;;;;;4849957;29;20290;-65
2022/05/18 02:13:53;;;;;;;14.40;12.77;;;14.60;78.90;;;;;;4846551;29;20819;-65
2022/05/18 02:16:20;;;;;;;14.30;12.90;;;14.60;79.30;;;;;;4821606;29;20130;-65
2022/05/18 02:18:46;;;;;;;15.57;13.43;;;14.60;79.20;;;;;;4835872;29;20291;-65
2022/05/18 02:21:12;;;;;;;15.47;13.10;;;14.60;79.10;;;;;;4820851;29;20379;-65
2022/05/18 02:23:40;;;;;;;14.13;12.70;;;14.50;79.10;;;;;;4805603;29;20114;-65
2022/05/18 02:26:07;;;;;;;15.13;13.17;;;14.50;79.10;;;;;;4807465;29;20311;-65
2022/05/18 02:28:33;;;;;;;14.83;13.33;;;14.50;79.10;;;;;;4850511;29;20863;-65
2022/05/18 02:30:58;;;;;;;16.13;13.50;;;14.50;79.20;;;;;;4850113;29;20750;-65
2022/05/18 02:33:24;;;;;;;16.37;13.13;;;14.50;79.20;;;;;;4803113;29;20046;-65
2022/05/18 02:35:50;;;;;;;14.07;12.43;;;14.40;79.20;;;;;;4820379;29;20399;-65
2022/05/18 02:38:15;;;;;;;15.30;13.67;;;14.40;79.20;;;;;;4824387;29;20047;-65
2022/05/18 02:40:41;;;;;;;16.90;14.77;;;14.40;79.70;;;;;;4819711;29;20057;-65
2022/05/18 02:43:07;;;;;;;17.43;15.50;;;14.30;79.80;;;;;;4804429;29;20057;-65
2022/05/18 02:45:33;;;;;;;16.13;14.43;;;14.30;79.70;;;;;;4819339;29;20340;-65
2022/05/18 02:47:59;;;;;;;17.40;14.17;;;14.30;79.70;;;;;;4808167;29;20174;-65
2022/05/18 02:50:26;;;;;;;16.97;14.27;;;14.20;79.80;;;;;;4852278;29;20042;-65
2022/05/18 02:52:52;;;;;;;17.17;15.47;;;14.20;80.10;;;;;;4808783;29;20299;-65
2022/05/18 02:58:02;;;;;;;17.43;14.90;;;14.20;80.20;;;;;;4851654;29;20317;-65
2022/05/18 03:00:28;;;;;;;17.40;14.50;;;14.10;80.30;;;;;;4830495;29;20288;-65
2022/05/18 03:02:55;;;;;;;18.03;15.87;;;14.10;80.30;;;;;;4828573;29;20117;-65
2022/05/18 03:05:21;;;;;;;16.93;15.07;;;14.10;80.50;;;;;;4854600;29;20523;-65
2022/05/18 03:07:47;;;;;;;18.10;16.13;;;14.10;80.60;;;;;;4834754;29;20311;-65
2022/05/18 03:10:15;;;;;;;17.40;15.13;;;14.00;80.70;;;;;;4819357;29;20129;-65
2022/05/18 03:12:43;;;;;;;17.90;16.23;;;14.00;80.80;;;;;;4823332;29;20076;-65
2022/05/18 03:15:13;;;;;;;23.63;21.33;;;14.00;80.90;;;;;;4828660;29;20351;-65
2022/05/18 03:17:39;;;;;;;21.83;19.23;;;14.00;81.10;;;;;;4815987;29;20881;-65
2022/05/18 03:20:06;;;;;;;21.20;19.13;;;14.00;81.00;;;;;;4819393;29;20363;-65
2022/05/18 03:25:16;;;;;;;19.37;17.10;;;13.90;81.40;;;;;;4834305;29;20308;-65
2022/05/18 03:27:43;;;;;;;19.13;17.30;;;13.90;81.40;;;;;;4826227;29;20507;-65
2022/05/18 03:30:11;;;;;;;20.80;18.97;;;13.90;81.30;;;;;;4847645;29;20500;-65
2022/05/18 03:32:39;;;;;;;22.77;20.93;;;13.90;81.40;;;;;;4816996;29;20329;-65
2022/05/18 03:35:06;;;;;;;19.33;17.53;;;13.90;81.50;;;;;;4823450;29;20288;-65
2022/05/18 03:37:32;;;;;;;23.23;21.10;;;13.90;81.60;;;;;;4820263;29;20296;-65
2022/05/18 03:39:58;;;;;;;33.87;31.53;;;13.90;81.50;;;;;;4851882;29;20291;-65
2022/05/18 03:42:23;;;;;;;21.27;19.33;;;13.90;81.70;;;;;;4822993;29;20054;-65
2022/05/18 03:44:49;;;;;;;20.87;19.07;;;13.90;81.60;;;;;;4822567;29;20527;-65
2022/05/18 03:47:15;;;;;;;20.00;17.93;;;13.90;81.40;;;;;;4802830;29;20046;-65
2022/05/18 03:49:41;;;;;;;19.17;17.57;;;14.00;81.60;;;;;;4851703;29;20301;-65
2022/05/18 03:52:07;;;;;;;23.10;18.50;;;14.00;81.70;;;;;;4824773;29;20531;-65
2022/05/18 03:54:34;;;;;;;18.43;16.63;;;14.00;81.70;;;;;;4818670;29;20167;-65
2022/05/18 03:57:00;;;;;;;18.40;16.50;;;14.10;81.40;;;;;;4804357;29;20300;-65
2022/05/18 03:59:26;;;;;;;23.90;22.10;;;14.20;80.90;;;;;;4839358;29;20306;-65
2022/05/18 04:01:52;;;;;;;22.60;20.57;;;14.20;81.00;;;;;;4820994;29;20307;-65
2022/05/18 04:04:18;;;;;;;20.17;18.13;;;14.30;80.80;;;;;;4817642;29;20372;-65
2022/05/18 04:06:43;;;;;;;21.07;19.23;;;14.30;80.90;;;;;;4821430;29;20295;-65
2022/05/18 04:09:09;;;;;;;24.17;21.87;;;14.30;80.80;;;;;;4805056;29;20511;-65
2022/05/18 04:11:35;;;;;;;20.87;19.07;;;14.30;80.70;;;;;;4820529;29;20038;-65
2022/05/18 04:14:00;;;;;;;21.17;17.67;;;14.30;80.70;;;;;;4826164;29;20046;-65
2022/05/18 04:16:26;;;;;;;19.80;17.03;;;14.30;80.70;;;;;;4819705;29;20042;-65
2022/05/18 04:18:52;;;;;;;20.00;17.83;;;14.30;80.70;;;;;;4834780;29;20061;-65
2022/05/18 04:21:18;;;;;;;17.57;15.33;;;14.40;80.80;;;;;;4824704;29;20325;-65
2022/05/18 04:23:44;;;;;;;20.00;18.07;;;14.40;80.90;;;;;;4846738;29;20096;-65
2022/05/18 04:26:10;;;;;;;17.53;15.70;;;14.50;80.90;;;;;;4802068;29;20698;-65
2022/05/18 04:28:36;;;;;;;18.30;16.33;;;14.50;80.70;;;;;;4851195;29;20445;-65
2022/05/18 04:31:02;;;;;;;20.37;17.87;;;14.60;80.70;;;;;;4817720;29;20306;-65
2022/05/18 04:33:28;;;;;;;20.03;17.73;;;14.60;80.60;;;;;;4815740;29;20046;-65
2022/05/18 04:35:53;;;;;;;19.00;17.10;;;14.60;80.30;;;;;;4813979;29;20102;-65
2022/05/18 04:38:21;;;;;;;19.33;17.47;;;14.70;80.40;;;;;;4817833;29;20725;-65
2022/05/18 04:40:47;;;;;;;18.40;16.63;;;14.70;80.20;;;;;;4847330;29;20080;-65
2022/05/18 04:43:13;;;;;;;21.47;17.80;;;14.70;80.20;;;;;;4805276;29;20382;-65
2022/05/18 04:45:44;;;;;;;21.57;19.37;;;14.70;80.00;;;;;;4847440;29;20430;-65
2022/05/18 04:48:18;;;;;;;20.33;18.57;;;14.80;80.10;;;;;;4850860;29;20315;-65
2022/05/18 04:50:45;;;;;;;21.47;19.40;;;14.80;80.00;;;;;;4811604;29;20640;-65
2022/05/18 04:53:11;;;;;;;32.53;30.00;;;14.80;80.30;;;;;;4850391;29;20299;-65
2022/05/18 04:55:37;;;;;;;23.23;20.77;;;14.90;80.60;;;;;;4853494;29;20296;-65
2022/05/18 04:58:04;;;;;;;23.80;21.47;;;15.00;80.50;;;;;;4835063;29;20299;-65
2022/05/18 05:00:29;;;;;;;26.13;24.00;;;15.20;80.20;;;;;;4802490;29;20062;-65
2022/05/18 05:02:57;;;;;;;21.80;19.60;;;15.30;80.00;;;;;;4846475;29;20394;-66
2022/05/18 05:05:25;;;;;;;21.73;19.70;;;15.50;80.20;;;;;;4808031;29;20057;-65
2022/05/18 05:07:53;;;;;;;23.07;20.93;;;16.00;79.50;;;;;;4847164;29;20856;-66
2022/05/18 05:10:18;;;;;;;23.97;21.87;;;16.30;78.60;;;;;;4843666;29;20793;-66
2022/05/18 05:12:45;;;;;;;24.13;21.50;;;16.60;78.50;;;;;;4830793;29;20302;-66
2022/05/18 05:15:12;;;;;;;23.47;21.13;;;17.20;77.50;;;;;;4824458;29;20073;-66
2022/05/18 05:17:38;;;;;;;20.80;19.00;;;18.20;75.20;;;;;;4803025;29;20310;-66
2022/05/18 05:20:04;;;;;;;22.17;20.10;;;19.10;72.90;;;;;;4849027;29;20300;-66
2022/05/18 05:22:30;;;;;;;23.63;21.63;;;19.90;70.70;;;;;;4804260;29;20485;-66
2022/05/18 05:24:56;;;;;;;26.53;24.40;;;20.50;68.60;;;;;;4802846;29;20300;-66
2022/05/18 05:27:22;;;;;;;23.80;21.73;;;21.00;66.80;;;;;;4846810;29;20307;-66
2022/05/18 05:29:48;;;;;;;22.67;20.87;;;21.30;66.10;;;;;;4801911;29;20058;-66
2022/05/18 05:32:14;;;;;;;25.23;23.13;;;21.70;65.10;;;;;;4825538;29;20104;-66
2022/05/18 05:34:40;;;;;;;26.27;24.37;;;21.90;64.40;;;;;;4799473;29;20051;-66
2022/05/18 05:37:06;;;;;;;28.17;25.80;;;21.90;64.60;;;;;;4804898;29;20100;-66
2022/05/18 05:39:31;;;;;;;25.07;22.63;;;22.20;63.60;;;;;;4832306;29;20356;-66
2022/05/18 05:41:57;;;;;;;22.67;20.57;;;22.50;62.90;;;;;;4838881;29;20053;-66
2022/05/18 05:44:23;;;;;;;22.17;20.20;;;22.70;62.00;;;;;;4819499;29;20047;-66
2022/05/18 05:46:50;;;;;;;23.77;21.43;;;22.80;62.00;;;;;;4820857;29;20053;-66
2022/05/18 05:49:16;;;;;;;25.40;23.40;;;23.00;61.40;;;;;;4816085;29;20050;-66
2022/05/18 05:51:42;;;;;;;25.73;23.20;;;23.00;61.20;;;;;;4837647;29;20054;-66
2022/05/18 05:54:08;;;;;;;28.17;25.57;;;22.90;61.30;;;;;;4850857;29;20054;-66
2022/05/18 05:56:34;;;;;;;31.07;28.07;;;23.10;61.30;;;;;;4814554;29;20518;-66
2022/05/18 05:58:59;;;;;;;23.23;21.10;;;23.30;60.50;;;;;;4849778;29;20523;-66
2022/05/18 06:01:25;;;;;;;27.20;24.97;;;23.60;60.00;;;;;;4796316;29;20337;-66
2022/05/18 06:03:51;;;;;;;31.97;29.50;;;23.70;59.50;;;;;;4832906;29;20078;-66
2022/05/18 06:06:19;;;;;;;25.67;23.43;;;23.50;59.00;;;;;;4841358;29;20079;-66
2022/05/18 06:08:45;;;;;;;25.93;23.40;;;23.30;59.50;;;;;;4848074;29;20046;-66
2022/05/18 06:11:11;;;;;;;28.70;26.13;;;23.20;60.00;;;;;;4807190;29;20077;-66
2022/05/18 06:13:38;;;;;;;23.77;21.80;;;23.30;59.40;;;;;;4820740;29;20121;-67
2022/05/18 06:16:05;;;;;;;25.97;23.70;;;23.70;59.40;;;;;;4827146;29;20491;-66
2022/05/18 06:18:31;;;;;;;26.90;24.67;;;24.00;58.70;;;;;;4801575;29;20137;-66
2022/05/18 06:20:57;;;;;;;28.83;26.50;;;24.20;57.90;;;;;;4833932;29;20141;-66
2022/05/18 06:23:23;;;;;;;26.03;23.63;;;24.40;57.30;;;;;;4818580;29;20050;-66
2022/05/18 06:25:49;;;;;;;24.70;22.43;;;24.50;57.30;;;;;;4819664;29;20595;-66
2022/05/18 06:28:15;;;;;;;24.20;22.10;;;24.60;57.10;;;;;;4844450;29;20137;-67
2022/05/18 06:30:41;;;;;;;27.20;24.53;;;24.80;57.00;;;;;;4821704;29;20058;-67
2022/05/18 06:33:07;;;;;;;25.70;23.33;;;24.90;56.90;;;;;;4816718;29;20146;-67
2022/05/18 06:35:33;;;;;;;26.90;24.67;;;25.00;57.00;;;;;;4820869;29;20443;-67
2022/05/18 06:37:59;;;;;;;30.10;27.50;;;25.00;56.40;;;;;;4835741;29;20157;-67
2022/05/18 06:41:21;;;;;;;26.47;24.07;;;24.40;56.60;;;;;;4821288;29;20055;-67
2022/05/18 06:43:11;;;;;;;24.57;22.50;;;24.30;57.20;;;;;;4833846;29;20512;-67
2022/05/18 06:45:37;;;;;;;29.83;27.13;;;24.40;57.00;;;;;;4817311;29;20356;-67
2022/05/18 06:48:04;;;;;;;24.30;22.17;;;24.30;57.40;;;;;;4844698;29;20115;-67
2022/05/18 06:50:29;;;;;;;23.37;21.13;;;24.20;57.60;;;;;;4816289;29;20398;-67
2022/05/18 06:52:55;;;;;;;30.23;27.93;;;24.10;57.40;;;;;;4851639;29;20568;-67
2022/05/18 06:55:21;;;;;;;23.80;21.70;;;23.90;58.20;;;;;;4815276;29;20095;-67
2022/05/18 06:57:47;;;;;;;27.80;25.23;;;23.80;59.10;;;;;;4846695;29;20070;-67
2022/05/18 07:00:15;;;;;;;26.70;24.10;;;23.70;59.30;;;;;;4831057;29;20054;-67
2022/05/18 07:02:43;;;;;;;27.33;25.13;;;23.70;59.30;;;;;;4837879;29;20129;-67
2022/05/18 07:05:09;;;;;;;24.40;21.97;;;23.60;59.60;;;;;;4807382;29;20481;-67
2022/05/18 07:07:35;;;;;;;25.30;22.90;;;23.50;60.00;;;;;;4817276;29;20556;-67
2022/05/18 07:10:01;;;;;;;24.03;21.93;;;23.40;60.40;;;;;;4845526;29;20038;-68
2022/05/18 07:12:27;;;;;;;23.73;21.67;;;23.20;61.10;;;;;;4833518;29;20053;-68
2022/05/18 07:14:52;;;;;;;24.90;22.53;;;23.20;61.20;;;;;;4798694;29;20057;-67
2022/05/18 07:17:18;;;;;;;25.63;23.37;;;23.20;60.70;;;;;;4822376;29;20050;-67
2022/05/18 07:19:44;;;;;;;24.00;21.67;;;23.20;60.20;;;;;;4826094;29;20086;-67
2022/05/18 07:22:12;;;;;;;24.63;22.37;;;23.20;60.30;;;;;;4855951;29;20046;-67
2022/05/18 07:24:37;;;;;;;23.13;20.77;;;23.20;59.80;;;;;;4821985;29;20486;-67
2022/05/18 07:27:04;;;;;;;23.77;21.47;;;23.20;58.60;;;;;;4826574;29;20046;-67
2022/05/18 07:29:30;;;;;;;29.50;27.10;;;23.20;58.60;;;;;;4826335;29;20061;-67
2022/05/18 07:32:14;;;;;;;22.93;20.90;;;23.20;58.50;;;;;;4850288;29;20594;-68
2022/05/18 07:34:44;;;;;;;25.73;23.03;;;23.10;58.50;;;;;;4821288;29;20046;-68
2022/05/18 07:37:11;;;;;;;27.00;24.50;;;22.90;59.10;;;;;;4824898;29;20527;-68
2022/05/18 07:39:38;;;;;;;22.73;20.53;;;22.80;59.50;;;;;;4853968;29;20691;-68
2022/05/18 07:42:05;;;;;;;25.80;23.43;;;22.90;60.00;;;;;;4807126;29;20046;-68
2022/05/18 07:44:32;;;;;;;25.87;23.37;;;22.90;60.30;;;;;;4800976;29;20362;-68
2022/05/18 07:46:58;;;;;;;27.97;25.27;;;23.00;59.60;;;;;;4823418;29;20056;-68
2022/05/18 07:49:24;;;;;;;23.53;21.13;;;23.20;59.60;;;;;;4834051;29;20058;-68
2022/05/18 07:51:50;;;;;;;26.50;24.33;;;23.30;59.50;;;;;;4804889;29;20409;-68
2022/05/18 07:54:15;;;;;;;28.93;22.87;;;23.30;59.00;;;;;;4822802;29;20038;-68
2022/05/18 07:56:42;;;;;;;34.93;32.17;;;23.40;58.80;;;;;;4803233;29;20058;-68
2022/05/18 07:59:09;;;;;;;26.33;23.63;;;23.40;58.70;;;;;;4836279;29;20053;-68
2022/05/18 08:01:36;;;;;;;35.33;32.43;;;23.30;58.80;;;;;;4827359;29;20518;-68
2022/05/18 08:04:03;;;;;;;27.40;24.83;;;23.00;58.40;;;;;;4845653;29;20058;-68
2022/05/18 08:06:29;;;;;;;28.17;25.53;;;22.90;59.10;;;;;;4822003;29;20399;-68
2022/05/18 08:08:55;;;;;;;29.80;26.67;;;22.80;59.50;;;;;;4850155;29;20050;-68
2022/05/18 08:16:50;;;;;;;35.97;32.92;;;23.20;59.50;;;;;;4844713;29;20129;-67
2022/05/18 08:19:17;;;;;;;31.07;27.77;;;23.10;59.10;;;;;;4852830;29;20129;-69
2022/05/18 08:21:44;;;;;;;41.37;37.90;;;23.10;59.90;;;;;;4837958;29;20058;-66
2022/05/18 08:24:11;;;;;;;36.00;32.57;;;23.10;59.60;;;;;;4810079;29;20050;-66
2022/05/18 08:26:38;;;;;;;41.27;37.87;;;23.20;60.30;;;;;;4840968;29;20063;-66
2022/05/18 08:29:05;;;;;;;38.20;34.97;;;23.30;60.40;;;;;;4852531;29;20519;-66
2022/05/18 08:31:30;;;;;;;34.73;31.83;;;23.40;59.60;;;;;;4833025;29;20043;-66
2022/05/18 08:33:56;;;;;;;40.20;36.90;;;23.50;60.30;;;;;;4822634;29;20469;-66
2022/05/18 08:36:25;;;;;;;35.23;32.03;;;23.60;59.40;;;;;;4804390;29;20396;-66
2022/05/18 08:38:51;;;;;;;37.53;34.33;;;23.60;59.10;;;;;;4820560;29;20053;-66
2022/05/18 08:41:32;;;;;;;33.50;30.60;;;23.80;59.40;;;;;;4821692;29;20050;-66
2022/05/18 08:44:02;;;;;;;33.40;30.63;;;23.90;58.70;;;;;;4824119;29;20500;-66
2022/05/18 08:46:52;;;;;;;30.10;27.53;;;23.80;57.60;;;;;;4821503;29;20268;-66
2022/05/18 08:49:36;;;;;;;37.23;34.00;;;23.90;57.30;;;;;;4846383;29;20126;-67
2022/05/18 08:52:20;;;;;;;37.15;33.75;;;23.80;56.90;;;;;;4835293;29;20045;-67
2022/05/18 08:55:11;;;;;;;37.10;33.97;;;24.00;58.00;;;;;;4850933;29;20049;-67
2022/05/18 08:57:41;;;;;;;34.93;31.93;;;24.20;57.20;;;;;;4837774;29;20423;-67
2022/05/18 09:00:16;;;;;;;36.63;33.50;;;24.30;56.60;;;;;;4817751;29;20111;-67
2022/05/18 09:02:44;;;;;;;36.80;33.77;;;24.50;56.60;;;;;;4854855;29;20077;-67
2022/05/18 09:05:29;;;;;;;37.73;34.83;;;24.70;55.90;;;;;;4836897;29;20080;-67
2022/05/18 09:08:20;;;;;;;37.23;33.93;;;24.90;54.90;;;;;;4803379;29;20054;-67
2022/05/18 09:10:57;;;;;;;37.47;34.67;;;24.90;55.10;;;;;;4819134;29;20050;-67
2022/05/18 09:13:23;;;;;;;38.40;35.10;;;24.80;55.80;;;;;;4821511;29;20046;-67
2022/05/18 09:15:59;;;;;;;37.70;34.83;;;24.90;56.20;;;;;;4822884;29;20081;-67
2022/05/18 09:18:41;;;;;;;37.63;34.63;;;25.10;55.30;;;;;;4847547;29;20051;-67
2022/05/18 09:21:31;;;;;;;30.33;27.97;;;25.10;54.80;;;;;;4821053;29;20065;-67
2022/05/18 09:24:27;;;;;;;43.60;40.30;;;25.10;55.20;;;;;;4820845;29;20054;-67
2022/05/18 09:27:01;;;;;;;;;;;25.10;55.40;;;;;;4853720;29;20109;-67
2022/05/18 09:29:39;;;;;;;35.67;32.73;;;25.10;55.30;;;;;;4841443;29;19991;-67
2022/05/18 09:32:26;;;;;;;35.67;32.80;;;25.20;56.00;;;;;;4849143;29;20053;-67
2022/05/18 09:35:14;;;;;;;44.47;41.17;;;25.40;55.50;;;;;;4822064;29;20499;-67
2022/05/18 09:37:46;;;;;;;37.20;34.23;;;25.50;55.10;;;;;;4847746;29;20050;-67
2022/05/18 09:40:24;;;;;;;37.93;34.90;;;25.50;55.70;;;;;;4821333;29;20042;-67
2022/05/18 09:43:00;;;;;;;34.70;31.50;;;25.60;54.60;;;;;;4821800;29;20125;-67
2022/05/18 09:45:29;;;;;;;42.60;38.80;;;25.70;54.90;;;;;;4800797;29;20103;-67
2022/05/18 09:48:03;;;;;;;39.27;35.97;;;25.70;55.40;;;;;;4836648;29;20042;-67
2022/05/18 09:50:29;;;;;;;35.42;31.98;;;25.90;54.60;;;;;;4823061;29;20057;-67
2022/05/18 09:52:56;;;;;;;38.93;35.57;;;26.00;54.50;;;;;;4830227;29;20162;-67
2022/05/18 09:55:25;;;;;;;38.73;35.33;;;26.00;53.90;;;;;;4818988;29;20062;-67
2022/05/18 09:57:54;;;;;;;42.10;38.53;;;26.10;53.80;;;;;;4832925;29;20042;-67
2022/05/18 10:00:24;;;;;;;37.57;34.33;;;25.70;54.90;;;;;;4822410;29;20138;-67
2022/05/18 10:08:28;;;;;;;35.27;31.67;;;25.80;54.70;;;;;;4839088;29;20127;-67
2022/05/18 10:10:59;;;;;;;37.30;33.80;;;25.80;55.40;;;;;;4838771;29;20046;-67
2022/05/18 10:13:32;;;;;;;39.07;35.77;;;25.50;55.40;;;;;;4822718;29;20191;-67
2022/05/18 10:16:17;;;;;;;37.93;34.70;;;25.50;55.30;;;;;;4836571;29;20038;-67
2022/05/18 10:18:48;;;;;;;40.88;37.42;;;25.50;55.30;;;;;;4821521;29;20299;-67
2022/05/18 10:21:18;;;;;;;47.77;44.20;;;25.60;55.50;;;;;;4817127;29;20046;-67
2022/05/18 10:23:52;;;;;;;46.50;42.70;;;25.50;53.80;;;;;;4844805;29;20069;-67
2022/05/18 10:26:23;;;;;;;49.90;46.03;;;25.10;55.20;;;;;;4846788;29;20090;-67
2022/05/18 10:29:08;;;;;;;60.53;55.83;;;25.20;56.60;;;;;;4842462;29;20319;-67
2022/05/18 10:31:43;;;;;;;48.42;44.25;;;25.20;56.10;;;;;;4842176;29;20064;-67
2022/05/18 10:34:22;;;;;;;58.80;54.47;;;25.40;54.20;;;;;;4793881;29;20046;-67
2022/05/18 10:36:52;;;;;;;48.47;44.67;;;25.00;54.80;;;;;;4847622;29;20520;-67
2022/05/18 10:39:46;;;;;;;47.53;43.73;;;25.10;55.70;;;;;;4847280;29;20057;-67
2022/05/18 10:42:20;;;;;;;58.07;53.87;;;25.50;53.50;;;;;;4801442;29;20061;-67
2022/05/18 10:44:46;;;;;;;58.23;54.10;;;25.70;54.00;;;;;;4851891;29;20566;-67
2022/05/18 10:47:18;;;;;;;51.53;47.30;;;26.00;53.70;;;;;;4821515;29;20050;-67
2022/05/18 10:49:45;;;;;;;60.00;55.63;;;26.20;53.30;;;;;;4842774;29;20137;-67
2022/05/18 10:52:18;;;;;;;53.80;49.73;;;26.20;53.50;;;;;;4821922;29;20456;-67
2022/05/18 10:55:15;;;;;;;63.93;59.33;;;26.50;53.20;;;;;;4855645;29;20050;-67
2022/05/18 10:57:58;;;;;;;71.33;66.27;;;26.40;51.90;;;;;;4816265;29;20102;-67
2022/05/18 11:00:46;;;;;;;61.40;56.80;;;26.30;52.20;;;;;;4825438;29;20053;-68
2022/05/18 11:03:28;;;;;;;60.67;55.90;;;26.10;52.70;;;;;;4820350;29;20053;-67
2022/05/18 11:06:09;;;;;;;58.80;54.53;;;26.10;52.60;;;;;;4851274;29;20045;-67
2022/05/18 11:08:35;;;;;;;58.43;53.73;;;26.50;52.40;;;;;;4820664;29;20411;-67
2022/05/18 11:11:15;;;;;;;57.67;53.37;;;26.60;52.20;;;;;;4825304;29;20045;-67
2022/05/18 11:13:53;;;;;;;56.93;52.73;;;26.60;52.20;;;;;;4850704;29;20058;-67
2022/05/18 11:16:22;;;;;;;51.97;48.00;;;26.70;51.40;;;;;;4849956;29;20061;-67
2022/05/18 11:18:54;;;;;;;59.50;55.50;;;26.60;52.50;;;;;;4850234;29;20133;-67
2022/05/18 11:21:28;;;;;;;55.70;51.60;;;26.40;52.00;;;;;;4823997;29;20057;-67
2022/05/18 11:24:14;;;;;;;;;;;26.30;52.10;;;;;;4850665;29;20146;-67
2022/05/18 11:27:01;;;;;;;53.25;49.40;;;26.40;51.30;;;;;;4849396;29;20433;-67
2022/05/18 11:30:01;;;;;;;51.50;47.73;;;26.00;52.20;;;;;;4808867;29;20061;-67
2022/05/18 11:32:31;;;;;;;52.30;48.50;;;26.10;52.80;;;;;;4845634;29;20038;-68
2022/05/18 11:35:06;;;;;;;50.57;46.83;;;26.10;52.10;;;;;;4821361;29;20434;-68
2022/05/18 11:38:09;;;;;;;66.47;61.57;;;25.90;52.50;;;;;;4837874;29;20094;-67
2022/05/18 11:41:12;;;;;;;60.87;56.13;;;25.60;52.40;;;;;;4819644;29;20043;-68
2022/05/18 11:44:04;;;;;;;53.30;49.13;;;25.20;53.70;;;;;;4855708;29;20050;-68
2022/05/18 11:46:44;;;;;;;69.90;64.43;;;25.20;54.40;;;;;;4850192;29;20531;-67
2022/05/18 11:49:42;;;;;;;67.60;62.50;;;25.80;53.40;;;;;;4798199;29;20261;-67
2022/05/18 11:52:19;;;;;;;58.93;54.13;;;26.00;52.10;;;;;;4834985;29;20094;-67
2022/05/18 11:55:08;;;;;;;68.30;63.17;;;26.20;51.30;;;;;;4847927;29;20077;-67
2022/05/18 11:57:53;;;;;;;56.50;51.77;;;26.10;52.20;;;;;;4827431;29;20051;-67
2022/05/18 12:00:56;;;;;;;55.63;50.97;;;26.10;51.70;;;;;;4820695;29;20051;-67
2022/05/18 12:03:45;;;;;;;67.73;62.53;;;25.70;52.60;;;;;;4854832;29;20214;-67
2022/05/18 12:06:32;;;;;;;58.53;53.87;;;25.70;52.60;;;;;;4825858;29;20108;-67
2022/05/18 12:09:29;;;;;;;72.77;67.17;;;25.60;53.30;;;;;;4843666;29;20050;-67
2022/05/18 12:12:15;;;;;;;59.70;55.20;;;25.60;52.30;;;;;;4825196;29;20117;-67
2022/05/18 12:15:04;;;;;;;77.27;71.17;;;25.40;52.90;;;;;;4854687;29;20048;-67
2022/05/18 12:17:57;;;;;;;64.93;60.00;;;25.50;53.40;;;;;;4833996;29;20078;-67
2022/05/18 12:20:34;;;;;;;68.83;63.67;;;25.50;53.50;;;;;;4831456;29;20110;-67
2022/05/18 12:23:05;;;;;;;59.13;54.63;;;25.70;52.80;;;;;;4825740;29;20042;-67
2022/05/18 12:25:31;;;;;;;55.63;51.17;;;25.90;53.00;;;;;;4827921;29;20069;-67
2022/05/18 12:28:01;;;;;;;65.20;59.80;;;25.90;52.70;;;;;;4808299;29;20548;-67
2022/05/18 12:30:29;;;;;;;57.50;52.57;;;25.80;52.80;;;;;;4844778;29;20404;-67
2022/05/18 12:32:56;;;;;;;65.00;59.83;;;25.90;52.70;;;;;;4802483;29;20082;-68
2022/05/18 12:35:46;;;;;;;63.47;58.57;;;25.80;52.50;;;;;;4823586;29;20158;-68
2022/05/18 12:38:41;;;;;;;59.30;54.67;;;25.60;53.10;;;;;;4847543;29;20115;-68
2022/05/18 12:41:11;;;;;;;56.47;51.63;;;25.50;53.10;;;;;;4850057;29;20089;-68
2022/05/18 12:43:49;;;;;;;58.33;53.53;;;25.40;53.60;;;;;;4827406;29;20050;-68
2022/05/18 12:46:14;;;;;;;62.23;57.17;;;25.40;53.30;;;;;;4820248;29;20039;-68
2022/05/18 12:48:59;;;;;;;55.37;51.00;;;25.30;52.90;;;;;;4825270;29;20050;-68
2022/05/18 12:51:27;;;;;;;57.67;53.50;;;25.40;52.30;;;;;;4849542;29;20056;-68
2022/05/18 12:53:56;;;;;;;59.67;55.00;;;25.30;52.50;;;;;;4822950;29;20050;-68
2022/05/18 12:56:48;;;;;;;57.63;52.80;;;25.30;52.80;;;;;;4827078;29;20406;-68
2022/05/18 12:59:23;;;;;;;70.70;65.53;;;25.50;52.20;;;;;;4848231;29;20050;-68
2022/05/18 13:02:03;;;;;;;67.20;62.40;;;25.60;52.00;;;;;;4818176;29;20078;-68
2022/05/18 13:04:44;;;;;;;60.00;55.23;;;25.60;52.20;;;;;;4826346;29;20183;-68